Jeanie G — WDB2354 — position and weather

sailwx.info

Track history (hours):
 
Tides and Currents Weather Stations Pressure Air Temp Water Temp Dewpoint Dewpoint Depression Visibility Wind Speed Wind Dir Waves Ship Positions

Jeanie G

Owner: MARTIN OPERATING PARTNERSHIP LP, VIDOR, TX. More information available from US FCC via Universal Licensing System and Coast Guard Vessel Documentation Center.

Last reported at 2014-Oct-31 06:16 UTC. Time now 2014-Oct-31 10:02 UTC.
Position N 29°39' W 090°17'.

MMSI: 366875010.

Date/timePositionNaut miles runAvg speedWind from/ knotsBaromVisibWave heightAir tempDewpointWater temp
2014-Oct-31 06:16N 29°39' W 090°17'4 4.7
2014-Oct-31 05:18N 29°37' W 090°21'4 5.1
2014-Oct-31 04:33N 29°33' W 090°23'5 4.9
2014-Oct-31 03:33N 29°34' W 090°29'5 4.7
2014-Oct-31 02:33N 29°34' W 090°34'5 4.6
2014-Oct-31 01:33N 29°36' W 090°39'18 2.8
2014-Oct-30 19:05N 29°37' W 090°60'3 5.3
2014-Oct-30 18:33N 29°37' W 091°03'5 4.8
2014-Oct-30 17:33N 29°40' W 091°08'4 4.4
2014-Oct-30 16:33N 29°41' W 091°13'3 3.3
2014-Oct-30 15:33N 29°39' W 091°16'3 3.4
2014-Oct-30 14:33N 29°38' W 091°19'5 4.5
2014-Oct-30 13:33N 29°39' W 091°25'4 4.5
2014-Oct-30 12:33N 29°41' W 091°29'4 4.4
2014-Oct-30 11:33N 29°44' W 091°33'5 4.3
2014-Oct-30 10:30N 29°46' W 091°38'  
2014-Oct-24 04:12N 29°36' W 094°24'  
2014-Oct-21 12:33N 29°48' W 092°09'0 0.0
2014-Oct-21 11:11N 29°48' W 092°09'0 0.0
2014-Oct-21 10:24N 29°48' W 092°09'0 0.0
2014-Oct-21 09:24N 29°48' W 092°09'0 0.0
2014-Oct-21 06:21N 29°48' W 092°09'  
Track history (hours):
 
Tides and Currents Weather Stations Pressure Air Temp Water Temp Dewpoint Dewpoint Depression Visibility Wind Speed Wind Dir Waves Ship Positions

Jeanie G

Owner: MARTIN OPERATING PARTNERSHIP LP, VIDOR, TX. More information available from US FCC via Universal Licensing System and Coast Guard Vessel Documentation Center.

Last reported at 2014-Oct-31 06:16 UTC. Time now 2014-Oct-31 10:02 UTC.
Position N 29°39' W 090°17'.

MMSI: 366875010.

Date/timePositionNaut miles runAvg speedWind from/ knotsBaromVisibWave heightAir tempDewpointWater temp
2014-Oct-31 06:16N 29°39' W 090°17'4 4.7
2014-Oct-31 05:18N 29°37' W 090°21'4 5.1
2014-Oct-31 04:33N 29°33' W 090°23'5 4.9
2014-Oct-31 03:33N 29°34' W 090°29'5 4.7
2014-Oct-31 02:33N 29°34' W 090°34'5 4.6
2014-Oct-31 01:33N 29°36' W 090°39'18 2.8
2014-Oct-30 19:05N 29°37' W 090°60'3 5.3
2014-Oct-30 18:33N 29°37' W 091°03'5 4.8
2014-Oct-30 17:33N 29°40' W 091°08'4 4.4
2014-Oct-30 16:33N 29°41' W 091°13'3 3.3
2014-Oct-30 15:33N 29°39' W 091°16'3 3.4
2014-Oct-30 14:33N 29°38' W 091°19'5 4.5
2014-Oct-30 13:33N 29°39' W 091°25'4 4.5
2014-Oct-30 12:33N 29°41' W 091°29'4 4.4
2014-Oct-30 11:33N 29°44' W 091°33'5 4.3
2014-Oct-30 10:30N 29°46' W 091°38'  
2014-Oct-24 04:12N 29°36' W 094°24'  
2014-Oct-21 12:33N 29°48' W 092°09'0 0.0
2014-Oct-21 11:11N 29°48' W 092°09'0 0.0
2014-Oct-21 10:24N 29°48' W 092°09'0 0.0
2014-Oct-21 09:24N 29°48' W 092°09'0 0.0
2014-Oct-21 06:21N 29°48' W 092°09'  

Dump ship's entire track history